createdAt,value
2018-09-25T06:08:28.707Z,9.40
2018-09-25T07:07:11.366Z,8.10
2018-09-25T08:01:02.305Z,16.10
2018-09-25T08:03:35.289Z,15.60
2018-09-25T08:06:08.255Z,16.00
2018-09-25T08:08:41.533Z,15.90
2018-09-25T08:11:14.301Z,15.50
2018-09-25T08:13:47.107Z,16.20
2018-09-25T08:16:20.023Z,16.50
2018-09-25T08:23:58.926Z,17.50
2018-09-25T08:29:05.146Z,16.70
2018-09-25T08:31:38.106Z,17.80
2018-09-25T08:34:10.833Z,18.10
2018-09-25T08:39:17.647Z,17.60
2018-09-25T08:46:56.643Z,19.00
2018-09-25T08:49:29.405Z,18.50
2018-09-25T08:52:02.027Z,18.60
2018-09-25T08:59:41.243Z,19.20
2018-09-25T09:02:14.126Z,18.50
2018-09-25T09:12:25.677Z,19.30
2018-09-25T09:14:58.923Z,19.30
2018-09-25T09:17:31.821Z,19.20
2018-09-25T09:20:04.652Z,19.90
2018-09-25T09:27:43.562Z,21.10
2018-09-25T09:37:55.174Z,19.90
2018-09-25T09:40:28.310Z,19.70
2018-09-25T09:43:01.137Z,19.70
2018-09-25T09:45:34.415Z,20.20
2018-09-25T09:48:07.411Z,19.70
2018-09-25T10:00:52.531Z,20.00
2018-09-25T10:03:25.330Z,19.00
2018-09-25T10:05:58.269Z,18.40
2018-09-25T10:11:04.258Z,18.40
2018-09-25T10:13:37.105Z,19.10
2018-09-25T10:16:10.434Z,18.80
2018-09-25T10:18:43.329Z,19.10
2018-09-25T10:21:16.182Z,18.30
2018-09-25T10:23:49.014Z,18.50
2018-09-25T10:26:22.277Z,18.00
2018-09-25T10:28:55.220Z,18.80
2018-09-25T10:31:27.994Z,18.70
2018-09-25T10:46:46.204Z,19.40
2018-09-25T10:51:52.311Z,19.20
2018-09-25T11:04:36.762Z,19.20
2018-09-25T11:55:38.095Z,19.20
2018-09-25T12:03:17.493Z,18.60
2018-09-25T12:05:50.295Z,18.00
2018-09-25T13:50:25.471Z,18.40
2018-09-25T16:20:54.818Z,17.40
2018-09-25T16:23:27.742Z,13.60
2018-09-25T16:36:12.282Z,13.40
2018-09-25T16:38:45.488Z,13.00
2018-09-25T16:41:18.300Z,13.00
2018-09-25T17:50:11.315Z,12.90
2018-09-25T17:52:44.128Z,11.60
2018-09-25T17:55:17.281Z,11.60
2018-09-25T17:57:51.386Z,11.60
2018-09-25T18:00:24.526Z,11.60
2018-09-25T18:02:57.367Z,11.60
2018-09-25T18:05:30.507Z,11.60
2018-09-25T18:08:03.493Z,11.60
2018-09-25T18:10:36.543Z,11.90
2018-09-25T18:13:09.679Z,11.90
2018-09-25T18:15:42.921Z,11.90
2018-09-25T18:18:15.855Z,11.80
2018-09-25T18:20:56.203Z,11.60
2018-09-25T18:23:29.143Z,11.60
2018-09-25T18:26:02.367Z,11.50
2018-09-25T18:28:35.319Z,11.70
2018-09-25T18:31:08.689Z,11.50
2018-09-25T18:33:41.680Z,11.50
2018-09-25T18:36:14.696Z,11.50
2018-09-25T18:38:48.747Z,11.30
2018-09-25T18:41:21.968Z,11.30
2018-09-25T18:43:55.018Z,11.40
2018-09-25T18:46:27.906Z,11.30
2018-09-25T18:49:01.871Z,11.30
2018-09-25T18:51:35.174Z,11.20
2018-09-25T18:54:09.088Z,11.30
2018-09-25T18:56:43.207Z,11.30
2018-09-25T18:59:17.238Z,11.30
2018-09-25T19:01:50.585Z,11.20
2018-09-25T19:04:23.530Z,11.10
2018-09-25T19:06:57.626Z,11.20
2018-09-25T19:09:30.590Z,11.20
2018-09-25T19:12:05.816Z,11.10
2018-09-25T19:14:38.701Z,11.10
2018-09-25T19:17:12.747Z,11.00
2018-09-25T21:17:21.695Z,11.00
2018-09-25T21:35:12.872Z,8.90
2018-09-25T21:37:45.695Z,9.50
2018-09-25T21:40:18.790Z,8.70
2018-09-25T21:42:51.534Z,8.60
2018-09-25T21:45:24.491Z,8.60
2018-09-25T21:47:57.361Z,8.50
2018-09-25T21:50:30.534Z,8.50
2018-09-25T21:53:03.441Z,8.50
2018-09-25T21:55:36.216Z,8.50
2018-09-25T21:58:09.190Z,8.50
2018-09-25T22:00:43.100Z,8.40
2018-09-25T22:03:16.055Z,8.40
2018-09-25T22:05:49.323Z,8.30
2018-09-25T22:08:22.094Z,8.30
2018-09-25T22:10:54.808Z,8.20
2018-09-25T22:13:27.794Z,8.30
2018-09-25T22:16:01.058Z,8.20
2018-09-25T22:18:33.914Z,8.10
2018-09-25T22:21:06.688Z,8.10
2018-09-25T22:23:39.693Z,8.10
2018-09-25T22:26:12.971Z,8.20
2018-09-25T22:28:45.710Z,8.10
2018-09-25T22:31:18.832Z,8.10
2018-09-25T22:33:51.721Z,8.10
2018-09-25T22:36:24.656Z,8.10
2018-09-25T22:38:57.526Z,8.10
2018-09-25T22:41:30.503Z,8.10
2018-09-25T22:44:03.232Z,8.10
2018-09-25T22:46:36.305Z,8.10
2018-09-25T22:49:09.012Z,8.00
2018-09-25T22:51:42.155Z,8.00
2018-09-25T22:54:14.926Z,8.00
2018-09-25T22:56:47.957Z,8.10
2018-09-25T22:59:20.700Z,8.00
2018-09-25T23:01:54.105Z,8.10
2018-09-25T23:04:26.966Z,8.20
2018-09-25T23:07:00.263Z,8.10
2018-09-25T23:09:33.282Z,8.00
2018-09-25T23:12:06.530Z,8.10
2018-09-25T23:14:39.291Z,8.10
2018-09-25T23:17:12.343Z,8.00
2018-09-25T23:19:45.258Z,7.90
2018-09-25T23:22:18.585Z,7.90
2018-09-25T23:47:55.016Z,7.80
2018-09-25T23:50:30.155Z,7.50
2018-09-25T23:53:05.351Z,7.50
2018-09-25T23:55:39.608Z,7.50
2018-09-25T23:58:10.933Z,7.50
